Time;durP1;ratioP1;P1;durP2;ratioP2;P2;SDS_P1;SDS_P2;PMS_P1;PMS_P2;Temp;Humidity;BMP_temperature;BMP_pressure;BME280_temperature;BME280_humidity;BME280_pressure;Samples;Min_cycle;Max_cycle;Signal;HPM_P1;HPM_P2
2022/05/30 00:01:16;;;;;;;2.70;2.10;;;13.00;99.90;;;;;;5077296;28;20467;-51
2022/05/30 00:03:45;;;;;;;3.00;1.83;;;12.90;99.90;;;;;;5077353;28;20682;-48
2022/05/30 00:06:14;;;;;;;3.60;1.73;;;12.90;99.90;;;;;;5077187;28;20451;-44
2022/05/30 00:08:41;;;;;;;2.80;1.63;;;12.90;99.90;;;;;;5077250;28;20491;-55
2022/05/30 00:11:09;;;;;;;1.90;1.70;;;12.80;99.90;;;;;;5077362;28;20477;-42
2022/05/30 00:13:38;;;;;;;2.30;1.80;;;12.80;99.90;;;;;;5077279;28;20491;-41
2022/05/30 00:16:06;;;;;;;4.30;2.30;;;12.80;99.90;;;;;;5077337;28;20443;-46
2022/05/30 00:18:33;;;;;;;2.33;1.77;;;12.70;99.90;;;;;;5076138;28;20443;-52
2022/05/30 00:21:00;;;;;;;3.90;1.83;;;12.70;99.90;;;;;;5075828;28;20450;-45
2022/05/30 00:23:27;;;;;;;5.17;1.97;;;12.70;99.90;;;;;;5076980;28;20478;-44
2022/05/30 00:25:54;;;;;;;2.87;1.63;;;12.70;99.90;;;;;;5076707;28;20431;-54
2022/05/30 00:28:22;;;;;;;2.40;1.33;;;12.70;99.90;;;;;;5076790;28;20467;-48
2022/05/30 00:30:50;;;;;;;4.10;1.53;;;12.70;99.90;;;;;;5076810;28;20456;-47
2022/05/30 00:33:18;;;;;;;3.30;1.83;;;12.70;99.90;;;;;;5076612;28;20473;-48
2022/05/30 00:35:45;;;;;;;2.60;1.83;;;12.70;99.90;;;;;;5076783;28;20423;-46
2022/05/30 00:38:12;;;;;;;3.00;1.60;;;12.70;99.90;;;;;;5075926;28;20451;-52
2022/05/30 00:40:40;;;;;;;4.20;1.80;;;12.70;99.90;;;;;;5077165;28;20454;-48
2022/05/30 00:43:27;;;;;;;2.53;2.00;;;12.70;99.90;;;;;;5076720;28;20486;-54
2022/05/30 00:45:56;;;;;;;2.70;1.37;;;12.70;99.90;;;;;;5076394;28;20462;-45
2022/05/30 00:48:27;;;;;;;2.20;1.60;;;12.70;99.90;;;;;;5076989;28;20459;-49
2022/05/30 00:51:00;;;;;;;2.53;2.07;;;12.80;99.90;;;;;;5075912;28;20459;-51
2022/05/30 00:53:28;;;;;;;2.33;1.57;;;12.70;99.90;;;;;;5075849;28;21082;-47
2022/05/30 00:55:58;;;;;;;3.80;2.70;;;12.70;99.90;;;;;;5076130;28;20447;-46
2022/05/30 00:58:27;;;;;;;5.63;2.13;;;12.80;99.90;;;;;;5076576;28;20494;-50
2022/05/30 01:00:56;;;;;;;2.17;1.93;;;12.70;99.90;;;;;;5075833;28;20427;-44
2022/05/30 01:08:53;;;;;;;2.50;1.63;;;12.70;99.90;;;;;;5076562;28;20462;-42
2022/05/30 01:11:20;;;;;;;2.07;1.40;;;12.70;99.90;;;;;;5076636;28;20444;-46
2022/05/30 01:13:47;;;;;;;3.00;1.33;;;12.70;99.90;;;;;;5075978;28;20968;-46
2022/05/30 01:16:15;;;;;;;3.97;2.00;;;12.70;99.90;;;;;;5076515;28;20427;-49
2022/05/30 01:18:45;;;;;;;3.63;2.60;;;12.70;99.90;;;;;;5075985;28;20455;-44
2022/05/30 01:21:42;;;;;;;3.43;1.93;;;12.70;99.90;;;;;;5076119;28;20466;-47
2022/05/30 01:24:22;;;;;;;4.40;2.30;;;12.70;99.90;;;;;;5075894;28;20495;-46
2022/05/30 01:27:03;;;;;;;2.20;1.73;;;12.70;99.90;;;;;;5076067;28;20481;-42
2022/05/30 01:29:38;;;;;;;6.20;1.53;;;12.70;99.90;;;;;;5075784;28;20466;-43
2022/05/30 01:32:05;;;;;;;2.40;1.87;;;12.70;99.90;;;;;;5076066;28;20453;-44
2022/05/30 01:34:32;;;;;;;2.60;2.10;;;12.70;99.90;;;;;;5075581;28;20473;-48
2022/05/30 01:37:00;;;;;;;2.33;1.70;;;12.80;99.90;;;;;;5076083;28;20486;-45
2022/05/30 01:39:26;;;;;;;3.43;2.13;;;12.70;99.90;;;;;;5075900;28;20467;-40
2022/05/30 01:41:55;;;;;;;1.93;1.73;;;12.70;99.90;;;;;;5076130;28;20439;-47
2022/05/30 01:44:21;;;;;;;2.83;2.10;;;12.70;99.90;;;;;;5075605;28;20509;-47
2022/05/30 01:46:49;;;;;;;2.37;1.97;;;12.70;99.90;;;;;;5075819;28;20431;-44
2022/05/30 01:49:16;;;;;;;2.53;1.90;;;12.70;99.90;;;;;;5075734;28;20463;-54
2022/05/30 01:51:52;;;;;;;5.57;2.50;;;12.70;99.90;;;;;;5075619;28;20586;-49
2022/05/30 01:54:20;;;;;;;2.40;2.20;;;12.70;99.90;;;;;;5075443;28;20489;-51
2022/05/30 01:56:48;;;;;;;4.13;2.10;;;12.60;99.90;;;;;;5075459;28;20427;-45
2022/05/30 01:59:15;;;;;;;3.50;2.67;;;12.50;99.90;;;;;;5075568;28;20454;-45
2022/05/30 02:01:44;;;;;;;3.20;2.90;;;12.50;99.90;;;;;;5075458;28;20461;-46
2022/05/30 02:04:13;;;;;;;4.23;2.40;;;12.40;99.90;;;;;;5075814;28;20483;-44
2022/05/30 02:06:39;;;;;;;2.10;1.70;;;12.40;99.90;;;;;;5075451;28;20419;-47
2022/05/30 02:09:07;;;;;;;3.00;2.33;;;12.30;99.90;;;;;;5071729;28;20458;-48
2022/05/30 02:11:34;;;;;;;3.37;2.23;;;12.30;99.90;;;;;;5073065;28;20455;-43
2022/05/30 02:14:01;;;;;;;3.30;2.67;;;12.30;99.90;;;;;;5075528;28;20435;-60
2022/05/30 02:19:17;;;;;;;3.20;2.30;;;12.20;99.90;;;;;;5079256;28;20430;-45
2022/05/30 02:21:44;;;;;;;1.80;1.57;;;12.20;99.90;;;;;;5079519;28;20437;-41
2022/05/30 02:24:16;;;;;;;4.20;2.60;;;12.20;99.90;;;;;;5079323;28;20459;-43
2022/05/30 02:26:43;;;;;;;6.30;3.90;;;12.20;99.90;;;;;;5078321;28;20501;-54
2022/05/30 02:29:11;;;;;;;4.47;2.40;;;12.20;99.90;;;;;;5077970;28;20451;-45
2022/05/30 02:31:38;;;;;;;3.07;2.60;;;12.10;99.90;;;;;;5077724;28;20431;-47
2022/05/30 02:36:50;;;;;;;2.77;2.20;;;12.00;99.90;;;;;;5078629;28;20473;-47
2022/05/30 02:39:22;;;;;;;6.07;3.10;;;11.90;99.90;;;;;;5078430;28;20440;-50
2022/05/30 02:41:50;;;;;;;3.17;2.87;;;11.90;99.90;;;;;;5078793;28;20553;-43
2022/05/30 02:44:27;;;;;;;5.37;3.33;;;11.80;99.90;;;;;;5078487;28;20616;-48
2022/05/30 02:46:55;;;;;;;5.87;3.70;;;11.70;99.90;;;;;;5079027;28;20466;-46
2022/05/30 02:49:27;;;;;;;4.60;2.67;;;11.70;99.90;;;;;;5078962;28;20473;-45
2022/05/30 02:51:59;;;;;;;6.27;3.53;;;11.60;99.90;;;;;;5074744;28;20466;-49
2022/05/30 02:54:26;;;;;;;3.17;2.53;;;11.60;99.90;;;;;;5077323;28;20447;-44
2022/05/30 02:56:56;;;;;;;3.90;3.00;;;11.60;99.90;;;;;;5078506;28;20479;-47
2022/05/30 02:59:25;;;;;;;4.60;4.20;;;11.70;99.90;;;;;;5067910;28;20423;-51
2022/05/30 03:01:53;;;;;;;3.60;2.77;;;11.70;99.90;;;;;;5078290;28;20447;-47
2022/05/30 03:04:21;;;;;;;4.63;2.90;;;11.70;99.90;;;;;;5077917;28;20458;-46
2022/05/30 03:06:51;;;;;;;6.23;3.70;;;11.80;99.90;;;;;;5077934;28;20471;-48
2022/05/30 03:09:19;;;;;;;4.30;3.10;;;11.80;99.90;;;;;;5077446;28;20457;-46
2022/05/30 03:11:46;;;;;;;5.37;4.60;;;11.70;99.90;;;;;;5077962;28;20459;-46
2022/05/30 03:14:16;;;;;;;4.23;3.27;;;11.70;99.90;;;;;;5077764;28;20423;-48
2022/05/30 03:16:43;;;;;;;7.13;3.50;;;11.70;99.90;;;;;;5078065;28;20463;-44
2022/05/30 03:19:09;;;;;;;8.07;4.10;;;11.70;99.90;;;;;;5077918;28;20430;-45
2022/05/30 03:21:36;;;;;;;5.70;3.90;;;11.70;99.90;;;;;;5077968;28;20453;-44
2022/05/30 03:24:03;;;;;;;7.27;5.10;;;11.80;99.90;;;;;;5077879;28;20471;-44
2022/05/30 03:26:31;;;;;;;6.70;3.13;;;11.80;99.90;;;;;;5077597;28;20478;-45
2022/05/30 03:28:57;;;;;;;5.77;3.80;;;11.80;99.90;;;;;;5076178;28;20415;-46
2022/05/30 03:31:28;;;;;;;7.77;3.63;;;11.80;99.90;;;;;;5076715;28;20447;-49
2022/05/30 03:33:55;;;;;;;4.93;3.13;;;11.80;99.90;;;;;;5077534;28;20442;-47
2022/05/30 03:36:25;;;;;;;5.77;4.33;;;11.80;99.90;;;;;;5077533;28;20451;-45
2022/05/30 03:38:53;;;;;;;4.43;3.70;;;11.80;99.90;;;;;;5077559;28;20459;-44
2022/05/30 03:41:20;;;;;;;6.47;3.53;;;11.90;99.90;;;;;;5077566;28;20431;-45
2022/05/30 03:43:48;;;;;;;8.40;3.73;;;11.90;99.90;;;;;;5077402;28;20465;-45
2022/05/30 03:46:21;;;;;;;4.40;2.97;;;11.90;99.90;;;;;;5077185;28;20451;-48
2022/05/30 03:48:49;;;;;;;5.27;3.40;;;11.90;99.90;;;;;;5072234;28;20525;-49
2022/05/30 03:51:18;;;;;;;5.07;4.03;;;12.00;99.90;;;;;;5072319;28;20483;-41
2022/05/30 03:53:45;;;;;;;4.10;3.30;;;12.00;99.90;;;;;;5077326;28;20494;-44
2022/05/30 03:56:12;;;;;;;6.70;3.20;;;12.00;99.90;;;;;;5077518;28;20465;-48
2022/05/30 03:58:39;;;;;;;6.33;3.97;;;12.10;99.90;;;;;;5077507;28;20455;-53
2022/05/30 04:01:08;;;;;;;5.20;3.97;;;12.10;99.90;;;;;;5077544;28;20427;-46
2022/05/30 04:03:39;;;;;;;3.70;3.10;;;12.20;99.90;;;;;;5077135;28;20452;-42
2022/05/30 04:06:07;;;;;;;5.90;4.10;;;12.20;99.90;;;;;;5076822;28;20470;-47
2022/05/30 04:08:36;;;;;;;5.07;3.37;;;12.30;99.90;;;;;;5076926;28;20473;-48
2022/05/30 04:11:03;;;;;;;7.27;4.00;;;12.30;99.90;;;;;;5075047;28;20477;-48
2022/05/30 04:13:33;;;;;;;9.53;4.13;;;12.40;99.90;;;;;;5069287;28;20467;-45
2022/05/30 04:16:10;;;;;;;4.10;3.50;;;12.40;99.90;;;;;;5076526;28;20430;-45
2022/05/30 04:18:37;;;;;;;10.93;4.57;;;12.50;99.90;;;;;;5069601;28;20467;-41
2022/05/30 04:21:07;;;;;;;6.90;4.20;;;12.50;99.90;;;;;;5076863;28;20493;-49
2022/05/30 04:23:33;;;;;;;8.10;4.57;;;12.50;99.90;;;;;;5076196;28;20521;-43
2022/05/30 04:26:00;;;;;;;7.17;4.13;;;12.50;99.90;;;;;;5076088;28;20483;-49
2022/05/30 04:28:27;;;;;;;5.83;4.30;;;12.50;99.90;;;;;;5070646;28;20489;-52
2022/05/30 04:30:53;;;;;;;5.87;4.07;;;12.40;99.90;;;;;;5076028;28;20511;-48
2022/05/30 04:33:21;;;;;;;6.60;4.30;;;12.40;99.90;;;;;;5076318;28;20476;-45
2022/05/30 04:35:48;;;;;;;8.40;4.70;;;12.30;99.90;;;;;;5067523;28;20419;-49
2022/05/30 04:38:18;;;;;;;5.70;3.60;;;12.20;99.90;;;;;;5076232;28;20455;-48
2022/05/30 04:40:45;;;;;;;8.53;4.47;;;12.20;99.90;;;;;;5076203;28;20485;-45
2022/05/30 04:43:12;;;;;;;11.23;4.80;;;12.20;99.90;;;;;;5076476;28;20426;-43
2022/05/30 04:45:38;;;;;;;9.90;4.27;;;12.20;99.90;;;;;;5076171;28;20486;-44
2022/05/30 04:48:08;;;;;;;5.87;3.80;;;12.10;99.90;;;;;;5076437;28;20455;-46
2022/05/30 04:50:36;;;;;;;16.83;4.80;;;12.10;99.90;;;;;;5076205;28;20455;-49
2022/05/30 04:53:03;;;;;;;8.20;4.33;;;12.20;99.90;;;;;;5075818;28;20454;-50
2022/05/30 04:55:30;;;;;;;8.70;4.37;;;12.20;99.90;;;;;;5075318;28;20447;-47
2022/05/30 04:57:56;;;;;;;12.27;3.53;;;12.20;99.90;;;;;;5076112;28;20444;-43
2022/05/30 05:00:24;;;;;;;12.00;3.30;;;12.20;99.90;;;;;;5076027;28;20471;-46
2022/05/30 05:02:53;;;;;;;10.23;4.30;;;12.20;99.90;;;;;;5076139;28;20466;-47
2022/05/30 05:05:20;;;;;;;13.13;4.67;;;12.10;99.90;;;;;;5075818;28;20522;-51
2022/05/30 05:07:54;;;;;;;7.63;4.23;;;12.00;99.90;;;;;;5076276;28;20439;-49
2022/05/30 05:10:34;;;;;;;7.77;3.87;;;12.00;99.90;;;;;;5075836;28;20497;-48
2022/05/30 05:13:01;;;;;;;10.23;3.60;;;12.00;99.90;;;;;;5076071;28;20466;-48
2022/05/30 05:15:28;;;;;;;10.83;3.77;;;12.00;99.90;;;;;;5075836;28;20459;-49
2022/05/30 05:17:55;;;;;;;8.47;3.77;;;12.00;99.90;;;;;;5075497;28;20446;-49
2022/05/30 05:20:23;;;;;;;12.10;4.50;;;12.00;99.90;;;;;;5075518;28;20478;-43
2022/05/30 05:22:51;;;;;;;8.00;3.33;;;11.90;99.90;;;;;;5075742;28;20424;-46
2022/05/30 05:25:18;;;;;;;8.83;4.20;;;12.00;99.90;;;;;;5075457;28;20480;-49
2022/05/30 05:27:45;;;;;;;6.07;3.10;;;12.00;99.90;;;;;;5075145;28;20526;-45
2022/05/30 05:30:12;;;;;;;4.10;3.70;;;12.10;99.90;;;;;;5075294;28;20451;-45
2022/05/30 05:32:39;;;;;;;13.93;4.43;;;12.10;99.90;;;;;;5075446;28;20462;-50
2022/05/30 05:35:06;;;;;;;6.70;4.57;;;12.20;99.90;;;;;;5075262;28;20415;-55
2022/05/30 05:37:33;;;;;;;9.80;4.93;;;12.30;99.90;;;;;;5075194;28;20447;-47
2022/05/30 05:40:02;;;;;;;11.40;4.20;;;12.40;99.90;;;;;;5075978;28;20427;-44
2022/05/30 05:42:28;;;;;;;13.03;3.60;;;12.40;99.90;;;;;;5075303;28;20439;-45
2022/05/30 05:44:55;;;;;;;7.67;3.80;;;12.50;99.90;;;;;;5074975;28;20509;-42
2022/05/30 05:47:22;;;;;;;4.70;3.17;;;12.50;99.90;;;;;;5065396;28;20471;-40
2022/05/30 05:49:48;;;;;;;10.90;3.70;;;12.50;99.90;;;;;;5074083;28;20443;-38
2022/05/30 05:52:16;;;;;;;12.57;3.30;;;12.50;99.90;;;;;;5073059;28;20459;-51
2022/05/30 05:54:42;;;;;;;7.10;4.03;;;12.50;99.90;;;;;;5064654;28;20446;-44
2022/05/30 05:57:11;;;;;;;8.27;4.23;;;12.50;99.90;;;;;;5074111;28;20470;-48
2022/05/30 05:59:38;;;;;;;9.43;3.50;;;12.40;99.90;;;;;;5074077;28;20427;-40
2022/05/30 06:02:05;;;;;;;6.63;3.80;;;12.40;99.90;;;;;;5073851;28;20458;-46
2022/05/30 06:04:35;;;;;;;15.17;3.27;;;12.50;99.90;;;;;;5073925;28;20503;-42
2022/05/30 06:07:04;;;;;;;16.63;4.87;;;12.50;99.90;;;;;;5073283;28;20449;-47
2022/05/30 06:09:30;;;;;;;6.40;3.60;;;12.50;99.90;;;;;;5073245;28;20470;-53
2022/05/30 06:11:58;;;;;;;7.90;3.03;;;12.50;99.90;;;;;;5061577;28;20473;-43
2022/05/30 06:14:26;;;;;;;9.97;3.50;;;12.60;99.90;;;;;;5073294;28;20432;-49
2022/05/30 06:16:53;;;;;;;7.37;3.83;;;12.70;99.90;;;;;;5073237;28;20447;-43
2022/05/30 06:19:23;;;;;;;9.27;3.70;;;12.80;99.90;;;;;;5073537;28;20465;-42
2022/05/30 06:21:50;;;;;;;4.90;2.87;;;12.80;99.90;;;;;;5073832;28;20497;-48
2022/05/30 06:24:20;;;;;;;9.30;2.40;;;12.80;99.90;;;;;;5073632;28;20447;-49
2022/05/30 06:26:47;;;;;;;12.53;3.47;;;12.70;99.90;;;;;;5073163;28;20485;-44
2022/05/30 06:29:14;;;;;;;11.40;3.20;;;12.70;99.90;;;;;;5072819;28;20481;-44
2022/05/30 06:31:42;;;;;;;7.57;2.60;;;12.60;99.90;;;;;;5067493;28;20471;-50
2022/05/30 06:34:09;;;;;;;5.00;2.73;;;12.60;99.90;;;;;;5073618;28;20431;-43
2022/05/30 06:36:39;;;;;;;6.37;2.63;;;12.60;99.90;;;;;;5073648;28;20554;-48
2022/05/30 06:39:05;;;;;;;14.60;4.10;;;12.60;99.90;;;;;;5073535;28;20486;-45
2022/05/30 06:41:35;;;;;;;7.90;3.70;;;12.60;99.90;;;;;;5073604;28;20454;-45
2022/05/30 06:44:06;;;;;;;5.10;2.90;;;12.70;99.90;;;;;;5073721;28;20482;-49
2022/05/30 06:46:34;;;;;;;4.00;3.47;;;12.70;99.90;;;;;;5073607;28;20536;-46
2022/05/30 06:49:04;;;;;;;12.10;3.47;;;12.70;99.90;;;;;;5073399;28;20463;-44
2022/05/30 06:51:33;;;;;;;7.10;3.67;;;12.90;99.90;;;;;;5073585;28;20427;-48
2022/05/30 06:53:59;;;;;;;12.57;4.20;;;12.90;99.90;;;;;;5073003;28;20474;-47
2022/05/30 06:56:28;;;;;;;9.30;4.30;;;13.00;99.90;;;;;;5072911;28;20439;-47
2022/05/30 06:58:55;;;;;;;7.70;3.50;;;13.10;99.90;;;;;;5072529;28;20462;-48
2022/05/30 07:01:24;;;;;;;16.67;4.70;;;13.00;99.90;;;;;;5073325;28;20535;-48
2022/05/30 07:03:51;;;;;;;8.20;3.07;;;13.00;99.90;;;;;;5073982;28;20451;-43
2022/05/30 07:06:21;;;;;;;6.47;3.53;;;13.10;99.90;;;;;;5076371;28;20478;-44
2022/05/30 07:08:48;;;;;;;8.83;3.00;;;13.00;99.90;;;;;;5076930;28;20427;-45
2022/05/30 07:11:16;;;;;;;7.03;2.63;;;13.10;99.90;;;;;;5076565;28;20459;-45
2022/05/30 07:13:43;;;;;;;7.70;3.20;;;13.20;99.90;;;;;;5070510;28;20451;-44
2022/05/30 07:16:10;;;;;;;8.23;3.00;;;13.50;99.90;;;;;;5076139;28;20541;-46
2022/05/30 07:18:37;;;;;;;4.50;3.23;;;14.40;99.90;;;;;;5077144;28;20435;-50
2022/05/30 07:21:07;;;;;;;4.10;2.70;;;15.90;99.90;;;;;;5077353;28;20463;-38
2022/05/30 07:23:37;;;;;;;6.00;2.70;;;16.80;99.90;;;;;;5077488;28;20439;-42
2022/05/30 07:26:06;;;;;;;5.00;2.30;;;17.50;99.90;;;;;;5077138;28;20501;-46
2022/05/30 07:28:34;;;;;;;3.70;2.47;;;17.60;99.90;;;;;;5077744;28;20502;-41
2022/05/30 07:31:04;;;;;;;5.23;2.90;;;17.30;99.90;;;;;;5076858;28;20454;-48
2022/05/30 07:33:31;;;;;;;5.10;2.70;;;16.60;99.90;;;;;;5076583;28;20538;-44
2022/05/30 07:35:59;;;;;;;6.70;2.90;;;16.00;99.90;;;;;;5076848;28;20451;-43
2022/05/30 07:38:27;;;;;;;4.00;2.70;;;15.40;99.90;;;;;;5076453;28;20905;-43
2022/05/30 07:40:55;;;;;;;7.63;2.70;;;14.80;99.90;;;;;;5076732;28;20424;-51
2022/05/30 07:43:22;;;;;;;7.03;3.23;;;14.50;99.90;;;;;;5076879;28;20503;-45
2022/05/30 07:45:49;;;;;;;3.47;2.80;;;14.30;99.90;;;;;;5076957;28;20483;-42
2022/05/30 07:48:15;;;;;;;5.70;2.70;;;14.30;99.90;;;;;;5071863;28;20439;-54
2022/05/30 07:50:42;;;;;;;7.07;2.50;;;14.20;99.90;;;;;;5072867;28;20465;-41
2022/05/30 07:53:09;;;;;;;7.20;3.00;;;14.20;99.90;;;;;;5076355;28;20522;-36
2022/05/30 07:55:39;;;;;;;9.30;4.00;;;14.10;99.90;;;;;;5076030;28;20459;-48
2022/05/30 07:58:07;;;;;;;4.03;2.80;;;14.00;99.90;;;;;;5076615;28;20508;-44
2022/05/30 08:00:37;;;;;;;6.60;3.37;;;13.90;99.90;;;;;;5075689;28;20467;-42
2022/05/30 08:03:05;;;;;;;6.53;3.10;;;14.00;99.90;;;;;;5076098;28;20467;-43
2022/05/30 08:05:33;;;;;;;6.70;3.80;;;14.00;99.90;;;;;;5075530;28;20469;-48
2022/05/30 08:08:00;;;;;;;5.37;2.87;;;14.00;99.90;;;;;;5075816;28;20493;-41
2022/05/30 08:10:27;;;;;;;5.83;3.00;;;14.20;99.90;;;;;;5075910;28;20436;-49
2022/05/30 08:12:54;;;;;;;5.90;3.90;;;14.40;99.90;;;;;;5075281;28;20471;-41
2022/05/30 08:15:22;;;;;;;4.57;2.67;;;14.50;99.90;;;;;;5075531;28;20439;-52
2022/05/30 08:17:48;;;;;;;7.60;3.10;;;14.50;99.90;;;;;;5075666;28;20502;-42
2022/05/30 08:20:17;;;;;;;8.47;4.00;;;14.70;99.90;;;;;;5075422;28;20447;-45
2022/05/30 08:22:45;;;;;;;7.87;3.13;;;14.80;99.90;;;;;;5075842;28;20451;-43
2022/05/30 08:25:14;;;;;;;6.10;3.33;;;14.90;99.90;;;;;;5075752;28;20458;-46
2022/05/30 08:27:42;;;;;;;9.33;3.00;;;14.70;99.90;;;;;;5075541;28;20454;-46
2022/05/30 08:30:10;;;;;;;6.57;3.43;;;14.50;99.90;;;;;;5075394;28;20459;-45
2022/05/30 08:32:41;;;;;;;3.70;2.50;;;14.50;99.90;;;;;;5075603;28;20435;-50
2022/05/30 08:35:09;;;;;;;6.20;2.57;;;14.70;99.90;;;;;;5075371;28;20482;-45
2022/05/30 08:37:37;;;;;;;16.97;2.90;;;15.30;99.90;;;;;;5075664;28;20456;-50
2022/05/30 08:42:59;;;;;;;12.40;4.60;;;16.60;99.90;;;;;;5037668;28;20467;-44
2022/05/30 08:45:26;;;;;;;6.03;3.30;;;17.70;99.90;;;;;;5075373;28;20455;-50
2022/05/30 08:47:56;;;;;;;5.40;2.57;;;17.90;99.90;;;;;;5066916;28;20790;-45
2022/05/30 08:50:34;;;;;;;8.50;2.77;;;18.00;99.90;;;;;;5075913;28;20416;-43
2022/05/30 08:53:34;;;;;;;4.10;2.50;;;18.20;99.90;;;;;;5075572;28;20443;-43
2022/05/30 08:56:09;;;;;;;3.63;2.70;;;19.10;99.90;;;;;;5059711;28;20451;-46
2022/05/30 08:58:46;;;;;;;2.80;2.23;;;19.60;99.90;;;;;;5075926;28;20423;-44
2022/05/30 09:01:15;;;;;;;2.63;2.20;;;20.70;99.90;;;;;;5075933;28;20465;-41
2022/05/30 09:04:06;;;;;;;2.67;1.90;;;21.10;99.90;;;;;;5076123;28;20443;-45
2022/05/30 09:06:36;;;;;;;3.93;2.23;;;21.60;97.40;;;;;;5075429;28;20451;-53
2022/05/30 09:09:17;;;;;;;3.97;1.90;;;21.80;94.90;;;;;;5074519;28;20428;-47
2022/05/30 09:11:47;;;;;;;6.70;2.50;;;21.50;96.10;;;;;;5074980;28;20424;-44
2022/05/30 09:14:19;;;;;;;5.80;2.60;;;22.10;93.30;;;;;;5075632;28;20456;-45
2022/05/30 09:16:51;;;;;;;3.60;2.10;;;22.70;90.40;;;;;;5075205;28;20446;-46
2022/05/30 09:19:23;;;;;;;3.73;2.40;;;22.90;87.80;;;;;;5075082;28;20489;-47
2022/05/30 09:21:53;;;;;;;3.70;2.40;;;22.30;89.00;;;;;;5075154;28;20458;-42
2022/05/30 09:24:20;;;;;;;3.87;1.50;;;22.30;90.20;;;;;;5075255;28;20475;-43
2022/05/30 09:26:47;;;;;;;5.00;2.40;;;22.20;88.90;;;;;;5074484;28;20494;-47
2022/05/30 09:29:22;;;;;;;5.47;2.10;;;21.40;90.30;;;;;;5075857;28;20517;-48
2022/05/30 09:31:58;;;;;;;3.50;1.50;;;21.20;91.10;;;;;;5075294;28;20415;-49
2022/05/30 09:34:36;;;;;;;2.67;1.67;;;21.80;89.00;;;;;;5075078;28;20431;-44
2022/05/30 09:37:03;;;;;;;5.10;2.00;;;22.80;83.80;;;;;;5075521;28;20431;-46
2022/05/30 09:39:41;;;;;;;8.80;1.60;;;23.20;80.90;;;;;;5074774;28;20462;-44
2022/05/30 09:42:22;;;;;;;2.60;1.30;;;23.50;77.30;;;;;;5074921;28;20451;-44
2022/05/30 09:44:53;;;;;;;2.90;1.10;;;23.90;74.70;;;;;;5075594;28;20420;-43
2022/05/30 09:47:22;;;;;;;3.57;1.80;;;24.10;74.20;;;;;;5075250;28;20466;-47
2022/05/30 09:49:51;;;;;;;2.20;1.70;;;24.10;71.90;;;;;;5075214;28;20455;-50
2022/05/30 09:52:28;;;;;;;2.60;1.40;;;24.20;72.00;;;;;;5074718;28;20447;-47
2022/05/30 09:54:55;;;;;;;1.80;1.30;;;24.30;71.30;;;;;;5075555;28;20437;-39
2022/05/30 09:57:26;;;;;;;4.93;2.03;;;24.40;71.00;;;;;;5075020;28;20435;-39
2022/05/30 09:59:55;;;;;;;7.80;1.47;;;24.40;69.30;;;;;;5074590;28;20466;-49
2022/05/30 10:02:24;;;;;;;2.77;1.50;;;23.50;71.10;;;;;;5075166;28;20459;-48
2022/05/30 10:04:58;;;;;;;6.33;2.37;;;23.00;74.30;;;;;;5074763;28;20451;-53
2022/05/30 10:07:25;;;;;;;2.43;1.77;;;22.60;74.70;;;;;;5074858;28;20459;-43
2022/05/30 10:09:56;;;;;;;2.33;1.90;;;21.70;74.70;;;;;;5075412;28;20534;-47
2022/05/30 10:12:53;;;;;;;1.90;1.40;;;20.80;77.50;;;;;;5075668;28;20411;-47
2022/05/30 10:15:28;;;;;;;6.10;1.73;;;20.20;80.70;;;;;;5066274;28;20483;-42
2022/05/30 10:17:57;;;;;;;6.07;1.70;;;19.50;80.00;;;;;;5075504;28;20515;-43
2022/05/30 10:20:37;;;;;;;1.63;1.30;;;18.90;82.60;;;;;;5075118;28;20450;-48
2022/05/30 10:29:03;;;;;;;10.03;3.30;;;17.60;90.80;;;;;;5075449;28;20395;-49
2022/05/30 10:31:39;;;;;;;3.67;2.70;;;17.50;92.00;;;;;;5075320;28;20485;-50
2022/05/30 10:34:31;;;;;;;4.40;3.27;;;17.40;93.10;;;;;;5075169;28;20423;-48
2022/05/30 10:37:20;;;;;;;3.13;1.80;;;17.30;94.10;;;;;;5074558;28;20490;-45
2022/05/30 10:40:02;;;;;;;7.07;1.73;;;17.20;94.70;;;;;;5079192;28;20435;-55
2022/05/30 10:42:36;;;;;;;4.00;2.10;;;17.20;95.60;;;;;;5078970;28;20455;-50
2022/05/30 10:45:10;;;;;;;3.70;2.03;;;17.10;95.70;;;;;;5078454;28;20426;-48
2022/05/30 10:47:39;;;;;;;7.27;2.37;;;16.90;94.70;;;;;;5077608;28;20463;-46
2022/05/30 10:50:12;;;;;;;4.27;2.03;;;16.80;95.00;;;;;;5077175;28;20434;-46
2022/05/30 10:52:45;;;;;;;3.97;1.73;;;16.70;94.10;;;;;;5077853;28;20428;-49
2022/05/30 10:55:16;;;;;;;2.50;1.80;;;16.80;94.60;;;;;;5078220;28;20443;-40
2022/05/30 10:57:46;;;;;;;3.53;2.00;;;17.00;95.50;;;;;;5077528;28;20419;-49
2022/05/30 11:00:15;;;;;;;2.90;1.43;;;17.10;95.30;;;;;;5077436;28;20467;-52
2022/05/30 11:02:57;;;;;;;2.90;1.50;;;17.20;95.00;;;;;;5077630;28;20431;-49
2022/05/30 11:05:26;;;;;;;1.87;1.40;;;17.40;94.00;;;;;;5077905;28;20474;-51
2022/05/30 11:08:02;;;;;;;3.70;1.60;;;17.60;92.70;;;;;;5076788;28;20858;-50
2022/05/30 11:10:42;;;;;;;9.70;1.90;;;17.80;91.50;;;;;;5077763;28;20458;-46
2022/05/30 11:13:17;;;;;;;3.13;1.53;;;17.80;91.60;;;;;;5077004;28;20590;-52
2022/05/30 11:15:49;;;;;;;3.30;1.63;;;17.80;91.00;;;;;;5077585;28;20453;-48
2022/05/30 11:18:27;;;;;;;3.90;1.13;;;18.10;88.90;;;;;;5076681;28;20443;-44
2022/05/30 11:21:08;;;;;;;5.20;2.30;;;18.30;88.20;;;;;;5076690;28;20435;-44
2022/05/30 11:23:36;;;;;;;2.90;1.43;;;18.30;90.10;;;;;;5076811;28;20462;-48
2022/05/30 11:26:17;;;;;;;1.60;1.00;;;18.10;90.70;;;;;;5076018;28;20520;-48
2022/05/30 11:29:04;;;;;;;2.03;1.30;;;18.00;90.50;;;;;;5076952;28;20776;-43
2022/05/30 11:31:37;;;;;;;2.67;1.10;;;18.00;90.70;;;;;;5076983;28;20424;-42
2022/05/30 11:34:25;;;;;;;4.50;1.53;;;17.80;90.20;;;;;;5075725;28;20423;-38
2022/05/30 11:37:07;;;;;;;2.50;1.37;;;17.80;89.80;;;;;;5077138;28;20419;-41
2022/05/30 11:40:10;;;;;;;3.30;1.70;;;17.80;89.80;;;;;;5077050;28;20483;-44
2022/05/30 11:42:49;;;;;;;1.90;1.40;;;17.70;90.70;;;;;;5068871;28;20427;-41
2022/05/30 11:45:29;;;;;;;1.73;1.07;;;17.70;91.40;;;;;;5077200;28;20455;-42
2022/05/30 11:48:05;;;;;;;1.90;1.47;;;17.80;91.90;;;;;;5076717;28;20479;-44
2022/05/30 11:50:35;;;;;;;2.50;1.70;;;17.80;91.00;;;;;;5067597;28;20458;-41
2022/05/30 11:53:44;;;;;;;2.13;1.80;;;17.70;90.90;;;;;;5075428;28;20427;-48
2022/05/30 11:56:24;;;;;;;1.63;1.20;;;17.40;91.50;;;;;;5076293;28;20474;-42
2022/05/30 11:59:06;;;;;;;4.83;1.70;;;17.20;92.40;;;;;;5076699;28;20428;-48
2022/05/30 12:01:36;;;;;;;4.23;1.50;;;17.10;93.80;;;;;;5076537;28;20455;-43
2022/05/30 12:04:33;;;;;;;2.03;1.50;;;17.20;94.20;;;;;;5070872;28;20479;-51
2022/05/30 12:07:25;;;;;;;4.70;1.47;;;17.30;94.30;;;;;;5076010;28;20513;-40
2022/05/30 12:10:11;;;;;;;5.73;1.40;;;17.30;93.50;;;;;;5068139;28;20443;-47
2022/05/30 12:12:53;;;;;;;5.20;3.37;;;17.10;93.30;;;;;;5076495;28;20447;-49
2022/05/30 12:15:41;;;;;;;4.73;1.97;;;17.00;93.80;;;;;;5076252;28;20955;-46
2022/05/30 12:24:31;;;;;;;3.37;1.10;;;17.10;95.90;;;;;;5076123;28;20493;-44
2022/05/30 12:27:07;;;;;;;3.03;1.43;;;17.50;96.20;;;;;;5075967;28;20471;-48
2022/05/30 12:29:53;;;;;;;1.60;1.37;;;17.80;95.30;;;;;;5074702;28;20466;-46
2022/05/30 12:32:41;;;;;;;2.70;1.60;;;18.00;93.90;;;;;;5075240;28;20459;-48
2022/05/30 12:35:26;;;;;;;2.67;1.37;;;18.10;92.80;;;;;;5068674;28;20471;-39
2022/05/30 12:38:06;;;;;;;4.93;1.20;;;17.90;92.60;;;;;;5075871;28;20442;-42
2022/05/30 12:40:36;;;;;;;3.20;1.70;;;17.70;93.70;;;;;;5063415;28;20481;-44
2022/05/30 12:43:13;;;;;;;3.63;1.63;;;17.80;94.80;;;;;;5075466;28;20404;-47
2022/05/30 12:45:44;;;;;;;4.20;1.50;;;17.70;93.50;;;;;;5074504;28;20467;-43
2022/05/30 12:48:16;;;;;;;2.17;1.20;;;17.80;93.50;;;;;;5074797;28;20542;-43
2022/05/30 12:50:59;;;;;;;2.83;1.47;;;17.80;94.10;;;;;;5074818;28;20908;-48
2022/05/30 12:53:46;;;;;;;5.60;1.30;;;17.90;93.00;;;;;;5068727;28;20431;-46
2022/05/30 12:56:36;;;;;;;3.20;1.50;;;17.80;93.10;;;;;;5065214;28;20463;-48
2022/05/30 12:59:16;;;;;;;5.43;1.40;;;17.70;93.70;;;;;;5068337;28;20447;-46
2022/05/30 13:01:56;;;;;;;2.20;1.20;;;17.90;92.50;;;;;;5074657;28;20441;-52
2022/05/30 13:04:25;;;;;;;2.43;1.33;;;17.90;91.90;;;;;;5073956;28;20467;-52
2022/05/30 13:07:12;;;;;;;3.40;1.33;;;17.90;91.60;;;;;;5065925;28;20510;-45
2022/05/30 13:09:41;;;;;;;4.00;1.30;;;17.80;91.10;;;;;;5075232;28;20473;-42
2022/05/30 13:12:23;;;;;;;3.73;1.20;;;17.70;91.10;;;;;;5066926;28;20463;-46
2022/05/30 13:15:10;;;;;;;4.13;1.20;;;17.70;91.00;;;;;;5075383;28;20423;-46
2022/05/30 13:17:53;;;;;;;2.77;1.37;;;17.60;91.10;;;;;;5074329;28;20435;-46
2022/05/30 13:20:22;;;;;;;2.10;1.37;;;17.50;91.00;;;;;;5067284;28;20459;-43
2022/05/30 13:22:53;;;;;;;1.87;1.20;;;17.50;91.80;;;;;;5074636;28;20441;-50
2022/05/30 13:25:23;;;;;;;2.30;1.40;;;17.60;90.80;;;;;;5074956;28;20475;-47
2022/05/30 13:27:51;;;;;;;1.97;1.60;;;17.70;90.30;;;;;;5075227;28;20481;-49
2022/05/30 13:30:24;;;;;;;2.90;1.97;;;17.80;90.30;;;;;;5074766;28;20470;-39
2022/05/30 13:32:55;;;;;;;5.83;1.80;;;18.00;90.10;;;;;;5073186;28;20415;-51